Addicks, Texas
Current Conditions -  °F | °C
As of 6:53 AM on Tuesday 21 Oct 2014 (Local Time) from KSGR Reporting Station
Clear Clear  
Wind Chill: 61°   Ceiling: Unl
Heat Index: 61°   Visibility: 10mi
Dew Point: 56°   Wind: 6mph
Humidity: 83%   Direction: 40°NE
Pressure: 30.02"   Gusts: NA
Location:  29.7757°N, 95.6037°W
Report Text: KSGR 211153Z 04005KT 10SM CLR 16/13 A3002 RMK AO2 SLP167 T01610133 10178 20139 51008
Loading
Personal Weather Stations






























Interactive Weather Map
Tropical Storm Tracking
New forecast layout! Learn more

10-Day Weather Forecast

Advertisements
Track Severe Weather on mobile